sensor_id;sensor_type;location;lat;lon;timestamp;P1;durP1;ratioP1;P2;durP2;ratioP2
60362;SDS011;46205;48.870;12.562;2022-07-22T00:00:18;28.77;;;20.77;;
60362;SDS011;46205;48.870;12.562;2022-07-22T00:02:44;24.92;;;20.27;;
60362;SDS011;46205;48.870;12.562;2022-07-22T00:05:10;22.17;;;18.83;;
60362;SDS011;46205;48.870;12.562;2022-07-22T00:07:37;26.45;;;18.85;;
60362;SDS011;46205;48.870;12.562;2022-07-22T00:10:06;31.02;;;19.92;;
60362;SDS011;46205;48.870;12.562;2022-07-22T00:12:33;24.63;;;19.80;;
60362;SDS011;46205;48.870;12.562;2022-07-22T00:14:59;30.17;;;21.40;;
60362;SDS011;46205;48.870;12.562;2022-07-22T00:17:26;31.15;;;20.40;;
60362;SDS011;46205;48.870;12.562;2022-07-22T00:19:52;26.88;;;20.63;;
60362;SDS011;46205;48.870;12.562;2022-07-22T00:22:18;24.98;;;20.73;;
60362;SDS011;46205;48.870;12.562;2022-07-22T00:24:46;28.73;;;21.25;;
60362;SDS011;46205;48.870;12.562;2022-07-22T00:27:12;34.17;;;21.45;;
60362;SDS011;46205;48.870;12.562;2022-07-22T00:29:38;29.05;;;21.85;;
60362;SDS011;46205;48.870;12.562;2022-07-22T00:32:04;28.73;;;20.88;;
60362;SDS011;46205;48.870;12.562;2022-07-22T00:34:31;26.63;;;21.02;;
60362;SDS011;46205;48.870;12.562;2022-07-22T00:36:57;28.70;;;22.40;;
60362;SDS011;46205;48.870;12.562;2022-07-22T00:39:23;28.52;;;22.88;;
60362;SDS011;46205;48.870;12.562;2022-07-22T00:41:50;29.05;;;23.35;;
60362;SDS011;46205;48.870;12.562;2022-07-22T00:44:16;30.20;;;23.73;;
60362;SDS011;46205;48.870;12.562;2022-07-22T00:46:43;33.75;;;23.77;;
60362;SDS011;46205;48.870;12.562;2022-07-22T00:49:09;30.98;;;24.35;;
60362;SDS011;46205;48.870;12.562;2022-07-22T00:51:36;32.03;;;24.67;;
60362;SDS011;46205;48.870;12.562;2022-07-22T00:54:02;35.80;;;23.45;;
60362;SDS011;46205;48.870;12.562;2022-07-22T00:56:29;32.60;;;26.50;;
60362;SDS011;46205;48.870;12.562;2022-07-22T00:58:56;33.97;;;25.40;;
60362;SDS011;46205;48.870;12.562;2022-07-22T01:01:24;40.15;;;26.02;;
60362;SDS011;46205;48.870;12.562;2022-07-22T01:03:51;36.28;;;25.92;;
60362;SDS011;46205;48.870;12.562;2022-07-22T01:06:25;35.88;;;26.70;;
60362;SDS011;46205;48.870;12.562;2022-07-22T01:08:51;37.90;;;26.55;;
60362;SDS011;46205;48.870;12.562;2022-07-22T01:11:18;39.55;;;28.17;;
60362;SDS011;46205;48.870;12.562;2022-07-22T01:13:45;39.50;;;29.35;;
60362;SDS011;46205;48.870;12.562;2022-07-22T01:16:13;42.88;;;32.20;;
60362;SDS011;46205;48.870;12.562;2022-07-22T01:18:39;36.50;;;28.75;;
60362;SDS011;46205;48.870;12.562;2022-07-22T01:21:07;38.70;;;29.80;;
60362;SDS011;46205;48.870;12.562;2022-07-22T01:23:33;43.13;;;30.88;;
60362;SDS011;46205;48.870;12.562;2022-07-22T01:26:00;39.90;;;29.58;;
60362;SDS011;46205;48.870;12.562;2022-07-22T01:28:26;40.33;;;30.27;;
60362;SDS011;46205;48.870;12.562;2022-07-22T01:30:53;41.50;;;31.30;;
60362;SDS011;46205;48.870;12.562;2022-07-22T01:33:20;42.90;;;31.63;;
60362;SDS011;46205;48.870;12.562;2022-07-22T01:35:46;41.08;;;30.52;;
60362;SDS011;46205;48.870;12.562;2022-07-22T01:38:13;45.45;;;32.15;;
60362;SDS011;46205;48.870;12.562;2022-07-22T01:40:40;43.95;;;32.60;;
60362;SDS011;46205;48.870;12.562;2022-07-22T01:43:06;47.85;;;33.33;;
60362;SDS011;46205;48.870;12.562;2022-07-22T01:45:33;43.97;;;32.30;;
60362;SDS011;46205;48.870;12.562;2022-07-22T01:47:59;50.03;;;34.88;;
60362;SDS011;46205;48.870;12.562;2022-07-22T01:50:25;45.72;;;34.13;;
60362;SDS011;46205;48.870;12.562;2022-07-22T01:52:52;49.95;;;34.50;;
60362;SDS011;46205;48.870;12.562;2022-07-22T01:55:18;46.28;;;34.45;;
60362;SDS011;46205;48.870;12.562;2022-07-22T01:57:44;50.78;;;33.60;;
60362;SDS011;46205;48.870;12.562;2022-07-22T02:00:11;42.63;;;31.95;;
60362;SDS011;46205;48.870;12.562;2022-07-22T02:02:37;44.92;;;34.20;;
60362;SDS011;46205;48.870;12.562;2022-07-22T02:05:04;46.45;;;33.83;;
60362;SDS011;46205;48.870;12.562;2022-07-22T02:07:31;50.13;;;34.20;;
60362;SDS011;46205;48.870;12.562;2022-07-22T02:09:57;47.47;;;35.45;;
60362;SDS011;46205;48.870;12.562;2022-07-22T02:12:24;56.25;;;35.30;;
60362;SDS011;46205;48.870;12.562;2022-07-22T02:14:50;53.42;;;37.17;;
60362;SDS011;46205;48.870;12.562;2022-07-22T02:17:16;51.72;;;38.75;;
60362;SDS011;46205;48.870;12.562;2022-07-22T02:19:43;51.25;;;36.38;;
60362;SDS011;46205;48.870;12.562;2022-07-22T02:22:09;44.38;;;32.60;;
60362;SDS011;46205;48.870;12.562;2022-07-22T02:24:36;48.00;;;33.92;;
60362;SDS011;46205;48.870;12.562;2022-07-22T02:27:02;48.70;;;32.97;;
60362;SDS011;46205;48.870;12.562;2022-07-22T02:29:28;46.03;;;32.97;;
60362;SDS011;46205;48.870;12.562;2022-07-22T02:31:56;45.20;;;32.67;;
60362;SDS011;46205;48.870;12.562;2022-07-22T02:34:22;44.30;;;32.05;;
60362;SDS011;46205;48.870;12.562;2022-07-22T02:36:49;65.45;;;46.30;;
60362;SDS011;46205;48.870;12.562;2022-07-22T02:39:16;89.75;;;62.25;;
60362;SDS011;46205;48.870;12.562;2022-07-22T02:41:42;54.75;;;37.28;;
60362;SDS011;46205;48.870;12.562;2022-07-22T02:44:08;42.95;;;33.85;;
60362;SDS011;46205;48.870;12.562;2022-07-22T02:46:34;53.53;;;38.22;;
60362;SDS011;46205;48.870;12.562;2022-07-22T02:49:01;51.78;;;36.92;;
60362;SDS011;46205;48.870;12.562;2022-07-22T02:51:27;52.25;;;34.55;;
60362;SDS011;46205;48.870;12.562;2022-07-22T02:53:53;49.60;;;36.90;;
60362;SDS011;46205;48.870;12.562;2022-07-22T02:56:19;61.58;;;43.47;;
60362;SDS011;46205;48.870;12.562;2022-07-22T02:58:46;55.42;;;36.80;;
60362;SDS011;46205;48.870;12.562;2022-07-22T03:01:12;49.17;;;35.63;;
60362;SDS011;46205;48.870;12.562;2022-07-22T03:03:39;52.28;;;36.35;;
60362;SDS011;46205;48.870;12.562;2022-07-22T03:06:05;48.38;;;36.25;;
60362;SDS011;46205;48.870;12.562;2022-07-22T03:08:32;54.22;;;36.55;;
60362;SDS011;46205;48.870;12.562;2022-07-22T03:10:58;54.85;;;36.03;;
60362;SDS011;46205;48.870;12.562;2022-07-22T03:13:24;52.95;;;38.05;;
60362;SDS011;46205;48.870;12.562;2022-07-22T03:15:50;54.92;;;38.17;;
60362;SDS011;46205;48.870;12.562;2022-07-22T03:18:17;69.32;;;38.95;;
60362;SDS011;46205;48.870;12.562;2022-07-22T03:20:43;58.05;;;38.72;;
60362;SDS011;46205;48.870;12.562;2022-07-22T03:23:09;53.70;;;38.50;;
60362;SDS011;46205;48.870;12.562;2022-07-22T03:25:35;59.20;;;39.58;;
60362;SDS011;46205;48.870;12.562;2022-07-22T03:28:02;68.18;;;41.92;;
60362;SDS011;46205;48.870;12.562;2022-07-22T03:30:28;60.83;;;40.33;;
60362;SDS011;46205;48.870;12.562;2022-07-22T03:32:54;58.78;;;39.45;;
60362;SDS011;46205;48.870;12.562;2022-07-22T03:35:20;59.13;;;40.10;;
60362;SDS011;46205;48.870;12.562;2022-07-22T03:37:47;63.45;;;40.88;;
60362;SDS011;46205;48.870;12.562;2022-07-22T03:40:13;63.95;;;42.72;;
60362;SDS011;46205;48.870;12.562;2022-07-22T03:42:40;64.82;;;44.85;;
60362;SDS011;46205;48.870;12.562;2022-07-22T03:45:11;60.90;;;40.30;;
60362;SDS011;46205;48.870;12.562;2022-07-22T03:47:37;56.28;;;40.10;;
60362;SDS011;46205;48.870;12.562;2022-07-22T03:50:04;60.83;;;40.05;;
60362;SDS011;46205;48.870;12.562;2022-07-22T03:52:30;55.97;;;40.13;;
60362;SDS011;46205;48.870;12.562;2022-07-22T03:54:56;55.55;;;38.85;;
60362;SDS011;46205;48.870;12.562;2022-07-22T03:57:23;56.05;;;39.05;;
60362;SDS011;46205;48.870;12.562;2022-07-22T03:59:49;53.83;;;38.22;;
60362;SDS011;46205;48.870;12.562;2022-07-22T04:02:15;55.42;;;38.88;;
60362;SDS011;46205;48.870;12.562;2022-07-22T04:04:42;56.28;;;40.58;;
60362;SDS011;46205;48.870;12.562;2022-07-22T04:07:08;52.80;;;38.00;;
60362;SDS011;46205;48.870;12.562;2022-07-22T04:09:34;51.95;;;36.53;;
60362;SDS011;46205;48.870;12.562;2022-07-22T04:12:00;49.88;;;36.70;;
60362;SDS011;46205;48.870;12.562;2022-07-22T04:14:27;52.28;;;37.17;;
60362;SDS011;46205;48.870;12.562;2022-07-22T04:16:53;50.60;;;37.88;;
60362;SDS011;46205;48.870;12.562;2022-07-22T04:19:19;44.05;;;34.45;;
60362;SDS011;46205;48.870;12.562;2022-07-22T04:21:45;46.40;;;35.50;;
60362;SDS011;46205;48.870;12.562;2022-07-22T04:24:11;49.83;;;36.10;;
60362;SDS011;46205;48.870;12.562;2022-07-22T04:26:38;45.10;;;33.97;;
60362;SDS011;46205;48.870;12.562;2022-07-22T04:29:04;42.13;;;33.33;;
60362;SDS011;46205;48.870;12.562;2022-07-22T04:31:30;44.05;;;31.95;;
60362;SDS011;46205;48.870;12.562;2022-07-22T04:33:57;40.15;;;31.98;;
60362;SDS011;46205;48.870;12.562;2022-07-22T04:36:24;39.75;;;30.20;;
60362;SDS011;46205;48.870;12.562;2022-07-22T04:38:50;40.28;;;30.80;;
60362;SDS011;46205;48.870;12.562;2022-07-22T04:41:16;37.22;;;30.52;;
60362;SDS011;46205;48.870;12.562;2022-07-22T04:43:46;40.90;;;29.55;;
60362;SDS011;46205;48.870;12.562;2022-07-22T04:46:12;35.47;;;29.55;;
60362;SDS011;46205;48.870;12.562;2022-07-22T04:48:38;37.72;;;28.25;;
60362;SDS011;46205;48.870;12.562;2022-07-22T04:51:05;33.38;;;27.58;;
60362;SDS011;46205;48.870;12.562;2022-07-22T04:53:31;40.25;;;29.65;;
60362;SDS011;46205;48.870;12.562;2022-07-22T04:56:11;39.90;;;29.15;;
60362;SDS011;46205;48.870;12.562;2022-07-22T04:58:37;39.25;;;28.17;;
60362;SDS011;46205;48.870;12.562;2022-07-22T05:01:04;34.85;;;27.30;;
60362;SDS011;46205;48.870;12.562;2022-07-22T05:03:30;34.65;;;27.25;;
60362;SDS011;46205;48.870;12.562;2022-07-22T05:05:56;36.75;;;26.67;;
60362;SDS011;46205;48.870;12.562;2022-07-22T05:08:22;33.20;;;26.52;;
60362;SDS011;46205;48.870;12.562;2022-07-22T05:10:49;33.10;;;26.10;;
60362;SDS011;46205;48.870;12.562;2022-07-22T05:13:15;36.22;;;27.23;;
60362;SDS011;46205;48.870;12.562;2022-07-22T05:15:41;33.80;;;27.02;;
60362;SDS011;46205;48.870;12.562;2022-07-22T05:18:07;34.85;;;27.52;;
60362;SDS011;46205;48.870;12.562;2022-07-22T05:20:34;35.75;;;27.20;;
60362;SDS011;46205;48.870;12.562;2022-07-22T05:23:00;34.67;;;25.90;;
60362;SDS011;46205;48.870;12.562;2022-07-22T05:25:26;33.38;;;26.58;;
60362;SDS011;46205;48.870;12.562;2022-07-22T05:27:53;32.28;;;26.50;;
60362;SDS011;46205;48.870;12.562;2022-07-22T05:30:20;36.22;;;25.98;;
60362;SDS011;46205;48.870;12.562;2022-07-22T05:32:49;34.60;;;26.90;;
60362;SDS011;46205;48.870;12.562;2022-07-22T05:35:15;33.45;;;27.05;;
60362;SDS011;46205;48.870;12.562;2022-07-22T05:37:41;33.38;;;26.63;;
60362;SDS011;46205;48.870;12.562;2022-07-22T05:40:08;34.35;;;26.70;;
60362;SDS011;46205;48.870;12.562;2022-07-22T05:42:34;34.17;;;25.52;;
60362;SDS011;46205;48.870;12.562;2022-07-22T05:45:01;30.67;;;24.40;;
60362;SDS011;46205;48.870;12.562;2022-07-22T05:47:27;38.97;;;26.20;;
60362;SDS011;46205;48.870;12.562;2022-07-22T05:49:53;33.75;;;25.17;;
60362;SDS011;46205;48.870;12.562;2022-07-22T05:52:19;29.20;;;24.05;;
60362;SDS011;46205;48.870;12.562;2022-07-22T05:54:46;35.80;;;25.58;;
60362;SDS011;46205;48.870;12.562;2022-07-22T05:57:12;32.97;;;24.42;;
60362;SDS011;46205;48.870;12.562;2022-07-22T05:59:38;32.78;;;24.33;;
60362;SDS011;46205;48.870;12.562;2022-07-22T06:02:04;34.13;;;24.48;;
60362;SDS011;46205;48.870;12.562;2022-07-22T06:04:31;34.30;;;24.83;;
60362;SDS011;46205;48.870;12.562;2022-07-22T06:06:57;34.08;;;23.23;;
60362;SDS011;46205;48.870;12.562;2022-07-22T06:09:23;37.97;;;24.00;;
60362;SDS011;46205;48.870;12.562;2022-07-22T06:11:50;34.33;;;25.50;;
60362;SDS011;46205;48.870;12.562;2022-07-22T06:14:16;35.05;;;24.58;;
60362;SDS011;46205;48.870;12.562;2022-07-22T06:16:48;32.88;;;22.75;;
60362;SDS011;46205;48.870;12.562;2022-07-22T06:19:14;33.20;;;25.90;;
60362;SDS011;46205;48.870;12.562;2022-07-22T06:21:40;35.35;;;25.00;;
60362;SDS011;46205;48.870;12.562;2022-07-22T06:24:10;40.00;;;27.15;;
60362;SDS011;46205;48.870;12.562;2022-07-22T06:26:37;35.83;;;25.77;;
60362;SDS011;46205;48.870;12.562;2022-07-22T06:29:03;33.58;;;25.60;;
60362;SDS011;46205;48.870;12.562;2022-07-22T06:31:29;31.48;;;23.02;;
60362;SDS011;46205;48.870;12.562;2022-07-22T06:33:55;29.70;;;24.92;;
60362;SDS011;46205;48.870;12.562;2022-07-22T06:36:22;30.23;;;22.67;;
60362;SDS011;46205;48.870;12.562;2022-07-22T06:38:48;35.05;;;24.58;;
60362;SDS011;46205;48.870;12.562;2022-07-22T06:41:14;28.25;;;23.48;;
60362;SDS011;46205;48.870;12.562;2022-07-22T06:43:41;36.85;;;24.45;;
60362;SDS011;46205;48.870;12.562;2022-07-22T06:46:07;30.02;;;24.27;;
60362;SDS011;46205;48.870;12.562;2022-07-22T06:48:33;26.50;;;22.75;;
60362;SDS011;46205;48.870;12.562;2022-07-22T06:51:00;27.13;;;23.08;;
60362;SDS011;46205;48.870;12.562;2022-07-22T06:53:26;34.85;;;24.73;;
60362;SDS011;46205;48.870;12.562;2022-07-22T06:55:53;33.08;;;24.95;;
60362;SDS011;46205;48.870;12.562;2022-07-22T06:58:19;30.13;;;23.83;;
60362;SDS011;46205;48.870;12.562;2022-07-22T07:00:45;26.80;;;21.23;;
60362;SDS011;46205;48.870;12.562;2022-07-22T07:03:12;27.92;;;22.80;;
60362;SDS011;46205;48.870;12.562;2022-07-22T07:05:58;27.77;;;22.58;;
60362;SDS011;46205;48.870;12.562;2022-07-22T07:08:24;22.40;;;19.77;;
60362;SDS011;46205;48.870;12.562;2022-07-22T07:10:51;27.65;;;22.05;;
60362;SDS011;46205;48.870;12.562;2022-07-22T07:13:18;29.67;;;20.88;;
60362;SDS011;46205;48.870;12.562;2022-07-22T07:15:44;26.02;;;19.80;;
60362;SDS011;46205;48.870;12.562;2022-07-22T07:18:10;24.98;;;19.77;;
60362;SDS011;46205;48.870;12.562;2022-07-22T07:20:36;25.33;;;21.27;;
60362;SDS011;46205;48.870;12.562;2022-07-22T07:23:03;28.48;;;21.75;;
60362;SDS011;46205;48.870;12.562;2022-07-22T07:25:31;22.85;;;19.17;;
60362;SDS011;46205;48.870;12.562;2022-07-22T07:27:57;24.65;;;20.77;;
60362;SDS011;46205;48.870;12.562;2022-07-22T07:30:23;22.60;;;19.67;;
60362;SDS011;46205;48.870;12.562;2022-07-22T07:32:50;24.40;;;18.13;;
60362;SDS011;46205;48.870;12.562;2022-07-22T07:35:16;23.17;;;18.80;;
60362;SDS011;46205;48.870;12.562;2022-07-22T07:37:43;24.23;;;19.15;;
60362;SDS011;46205;48.870;12.562;2022-07-22T07:40:09;26.33;;;18.73;;
60362;SDS011;46205;48.870;12.562;2022-07-22T07:42:35;23.65;;;18.15;;
60362;SDS011;46205;48.870;12.562;2022-07-22T07:45:11;24.50;;;17.33;;
60362;SDS011;46205;48.870;12.562;2022-07-22T07:47:38;18.55;;;16.63;;
60362;SDS011;46205;48.870;12.562;2022-07-22T07:50:05;17.00;;;14.40;;
60362;SDS011;46205;48.870;12.562;2022-07-22T07:52:31;20.73;;;14.93;;
60362;SDS011;46205;48.870;12.562;2022-07-22T07:55:02;20.00;;;14.30;;
60362;SDS011;46205;48.870;12.562;2022-07-22T07:57:37;18.25;;;15.45;;
60362;SDS011;46205;48.870;12.562;2022-07-22T08:00:04;19.77;;;15.77;;
60362;SDS011;46205;48.870;12.562;2022-07-22T08:02:36;19.50;;;15.10;;
60362;SDS011;46205;48.870;12.562;2022-07-22T08:05:03;15.80;;;12.38;;
60362;SDS011;46205;48.870;12.562;2022-07-22T08:07:30;20.42;;;13.88;;
60362;SDS011;46205;48.870;12.562;2022-07-22T08:09:56;16.02;;;13.57;;
60362;SDS011;46205;48.870;12.562;2022-07-22T08:12:42;14.52;;;12.15;;
60362;SDS011;46205;48.870;12.562;2022-07-22T08:15:09;15.10;;;12.45;;
60362;SDS011;46205;48.870;12.562;2022-07-22T08:17:35;18.27;;;12.43;;
60362;SDS011;46205;48.870;12.562;2022-07-22T08:20:05;19.15;;;12.70;;
60362;SDS011;46205;48.870;12.562;2022-07-22T08:22:31;18.63;;;13.93;;
60362;SDS011;46205;48.870;12.562;2022-07-22T08:24:58;19.58;;;13.52;;
60362;SDS011;46205;48.870;12.562;2022-07-22T08:27:24;14.55;;;13.05;;
60362;SDS011;46205;48.870;12.562;2022-07-22T08:29:51;14.73;;;12.75;;
60362;SDS011;46205;48.870;12.562;2022-07-22T08:32:17;17.10;;;12.70;;
60362;SDS011;46205;48.870;12.562;2022-07-22T08:34:44;16.70;;;12.48;;
60362;SDS011;46205;48.870;12.562;2022-07-22T08:37:10;17.45;;;12.57;;
60362;SDS011;46205;48.870;12.562;2022-07-22T08:39:36;14.68;;;12.05;;
60362;SDS011;46205;48.870;12.562;2022-07-22T08:42:03;15.57;;;12.45;;
60362;SDS011;46205;48.870;12.562;2022-07-22T08:44:30;15.60;;;12.82;;
60362;SDS011;46205;48.870;12.562;2022-07-22T08:46:57;16.10;;;11.85;;
60362;SDS011;46205;48.870;12.562;2022-07-22T08:49:28;23.67;;;13.55;;
60362;SDS011;46205;48.870;12.562;2022-07-22T08:51:58;25.95;;;13.23;;
60362;SDS011;46205;48.870;12.562;2022-07-22T08:54:24;14.65;;;11.93;;
60362;SDS011;46205;48.870;12.562;2022-07-22T08:56:51;14.43;;;11.82;;
60362;SDS011;46205;48.870;12.562;2022-07-22T08:59:18;13.45;;;11.43;;
60362;SDS011;46205;48.870;12.562;2022-07-22T09:04:30;14.95;;;11.10;;
60362;SDS011;46205;48.870;12.562;2022-07-22T09:06:56;15.70;;;11.45;;
60362;SDS011;46205;48.870;12.562;2022-07-22T09:09:30;14.75;;;11.65;;
60362;SDS011;46205;48.870;12.562;2022-07-22T09:12:06;15.43;;;12.82;;
60362;SDS011;46205;48.870;12.562;2022-07-22T09:14:46;15.63;;;12.07;;
60362;SDS011;46205;48.870;12.562;2022-07-22T09:17:23;18.73;;;13.77;;
60362;SDS011;46205;48.870;12.562;2022-07-22T09:19:49;13.50;;;12.10;;
60362;SDS011;46205;48.870;12.562;2022-07-22T09:24:57;16.83;;;10.65;;
60362;SDS011;46205;48.870;12.562;2022-07-22T09:27:24;10.70;;;9.70;;
60362;SDS011;46205;48.870;12.562;2022-07-22T09:29:52;12.32;;;10.20;;
60362;SDS011;46205;48.870;12.562;2022-07-22T09:32:18;13.82;;;11.13;;
60362;SDS011;46205;48.870;12.562;2022-07-22T09:34:45;17.75;;;11.73;;
60362;SDS011;46205;48.870;12.562;2022-07-22T09:37:12;12.13;;;10.80;;
60362;SDS011;46205;48.870;12.562;2022-07-22T09:39:38;12.35;;;10.18;;
60362;SDS011;46205;48.870;12.562;2022-07-22T09:42:07;13.25;;;10.38;;
60362;SDS011;46205;48.870;12.562;2022-07-22T09:44:34;13.95;;;8.95;;
60362;SDS011;46205;48.870;12.562;2022-07-22T09:47:00;11.48;;;10.23;;
60362;SDS011;46205;48.870;12.562;2022-07-22T09:49:36;14.57;;;9.77;;
60362;SDS011;46205;48.870;12.562;2022-07-22T09:52:03;10.77;;;9.40;;
60362;SDS011;46205;48.870;12.562;2022-07-22T09:54:29;11.93;;;8.98;;
60362;SDS011;46205;48.870;12.562;2022-07-22T09:56:57;17.23;;;10.23;;
60362;SDS011;46205;48.870;12.562;2022-07-22T09:59:24;16.05;;;9.43;;
60362;SDS011;46205;48.870;12.562;2022-07-22T10:01:51;13.63;;;9.73;;
60362;SDS011;46205;48.870;12.562;2022-07-22T10:04:20;13.70;;;9.07;;
60362;SDS011;46205;48.870;12.562;2022-07-22T10:06:49;14.38;;;10.10;;
60362;SDS011;46205;48.870;12.562;2022-07-22T10:09:16;19.92;;;10.05;;
60362;SDS011;46205;48.870;12.562;2022-07-22T10:11:44;13.20;;;8.65;;
60362;SDS011;46205;48.870;12.562;2022-07-22T10:14:17;10.77;;;7.90;;
60362;SDS011;46205;48.870;12.562;2022-07-22T10:16:48;11.82;;;8.48;;
60362;SDS011;46205;48.870;12.562;2022-07-22T10:19:14;11.15;;;8.60;;
60362;SDS011;46205;48.870;12.562;2022-07-22T10:21:40;15.88;;;8.55;;
60362;SDS011;46205;48.870;12.562;2022-07-22T10:26:46;13.20;;;8.52;;
60362;SDS011;46205;48.870;12.562;2022-07-22T10:29:26;14.30;;;9.13;;
60362;SDS011;46205;48.870;12.562;2022-07-22T10:34:37;14.18;;;9.45;;
60362;SDS011;46205;48.870;12.562;2022-07-22T10:37:03;13.13;;;9.43;;
60362;SDS011;46205;48.870;12.562;2022-07-22T10:39:30;9.27;;;8.38;;
60362;SDS011;46205;48.870;12.562;2022-07-22T10:41:56;12.23;;;9.55;;
60362;SDS011;46205;48.870;12.562;2022-07-22T10:47:07;11.52;;;8.43;;
60362;SDS011;46205;48.870;12.562;2022-07-22T10:49:33;12.15;;;8.68;;
60362;SDS011;46205;48.870;12.562;2022-07-22T10:54:32;13.68;;;8.93;;
60362;SDS011;46205;48.870;12.562;2022-07-22T10:57:04;10.85;;;7.88;;
60362;SDS011;46205;48.870;12.562;2022-07-22T10:59:30;12.27;;;8.70;;
60362;SDS011;46205;48.870;12.562;2022-07-22T11:01:56;9.30;;;8.40;;
60362;SDS011;46205;48.870;12.562;2022-07-22T11:04:23;9.73;;;8.70;;
60362;SDS011;46205;48.870;12.562;2022-07-22T11:06:51;10.35;;;8.70;;
60362;SDS011;46205;48.870;12.562;2022-07-22T11:09:20;9.50;;;8.45;;
60362;SDS011;46205;48.870;12.562;2022-07-22T11:11:48;8.98;;;7.85;;
60362;SDS011;46205;48.870;12.562;2022-07-22T11:14:31;8.93;;;8.13;;
60362;SDS011;46205;48.870;12.562;2022-07-22T11:17:05;9.48;;;7.60;;
60362;SDS011;46205;48.870;12.562;2022-07-22T11:19:32;8.68;;;7.00;;
60362;SDS011;46205;48.870;12.562;2022-07-22T11:21:59;9.18;;;7.70;;
60362;SDS011;46205;48.870;12.562;2022-07-22T11:24:26;9.70;;;7.07;;
60362;SDS011;46205;48.870;12.562;2022-07-22T11:26:53;9.38;;;6.93;;
60362;SDS011;46205;48.870;12.562;2022-07-22T11:31:56;7.93;;;7.20;;
60362;SDS011;46205;48.870;12.562;2022-07-22T11:34:23;8.10;;;6.30;;
60362;SDS011;46205;48.870;12.562;2022-07-22T11:36:50;7.53;;;6.13;;
60362;SDS011;46205;48.870;12.562;2022-07-22T11:39:20;11.10;;;5.97;;
60362;SDS011;46205;48.870;12.562;2022-07-22T11:41:47;7.47;;;6.70;;
60362;SDS011;46205;48.870;12.562;2022-07-22T11:44:17;5.97;;;5.30;;
60362;SDS011;46205;48.870;12.562;2022-07-22T11:46:43;6.68;;;6.07;;
60362;SDS011;46205;48.870;12.562;2022-07-22T11:49:12;8.80;;;5.97;;
60362;SDS011;46205;48.870;12.562;2022-07-22T11:51:39;6.25;;;5.63;;
60362;SDS011;46205;48.870;12.562;2022-07-22T11:54:05;8.95;;;5.35;;
60362;SDS011;46205;48.870;12.562;2022-07-22T11:56:32;6.30;;;5.70;;
60362;SDS011;46205;48.870;12.562;2022-07-22T11:58:58;8.07;;;5.63;;
60362;SDS011;46205;48.870;12.562;2022-07-22T12:01:26;7.80;;;5.63;;
60362;SDS011;46205;48.870;12.562;2022-07-22T12:03:53;5.88;;;5.28;;
60362;SDS011;46205;48.870;12.562;2022-07-22T12:06:21;6.18;;;5.57;;
60362;SDS011;46205;48.870;12.562;2022-07-22T12:08:48;6.20;;;5.70;;
60362;SDS011;46205;48.870;12.562;2022-07-22T12:11:16;5.50;;;5.10;;
60362;SDS011;46205;48.870;12.562;2022-07-22T12:13:46;6.32;;;5.72;;
60362;SDS011;46205;48.870;12.562;2022-07-22T12:18:52;6.18;;;5.57;;
60362;SDS011;46205;48.870;12.562;2022-07-22T12:21:19;6.53;;;5.40;;
60362;SDS011;46205;48.870;12.562;2022-07-22T12:23:49;6.22;;;5.60;;
60362;SDS011;46205;48.870;12.562;2022-07-22T12:26:15;6.50;;;5.85;;
60362;SDS011;46205;48.870;12.562;2022-07-22T12:28:42;6.30;;;5.70;;
60362;SDS011;46205;48.870;12.562;2022-07-22T12:31:08;6.60;;;6.10;;
60362;SDS011;46205;48.870;12.562;2022-07-22T12:33:34;6.68;;;6.18;;
60362;SDS011;46205;48.870;12.562;2022-07-22T12:36:03;6.13;;;5.28;;
60362;SDS011;46205;48.870;12.562;2022-07-22T12:38:30;7.65;;;6.13;;
60362;SDS011;46205;48.870;12.562;2022-07-22T12:43:45;6.47;;;5.88;;
60362;SDS011;46205;48.870;12.562;2022-07-22T12:46:12;7.35;;;6.20;;
60362;SDS011;46205;48.870;12.562;2022-07-22T12:48:38;6.05;;;5.47;;
60362;SDS011;46205;48.870;12.562;2022-07-22T12:51:14;6.57;;;5.90;;
60362;SDS011;46205;48.870;12.562;2022-07-22T12:53:40;6.63;;;5.80;;
60362;SDS011;46205;48.870;12.562;2022-07-22T12:56:06;6.00;;;5.50;;
60362;SDS011;46205;48.870;12.562;2022-07-22T12:58:32;6.47;;;5.97;;
60362;SDS011;46205;48.870;12.562;2022-07-22T13:01:00;6.85;;;6.25;;
60362;SDS011;46205;48.870;12.562;2022-07-22T13:03:27;5.65;;;5.25;;
60362;SDS011;46205;48.870;12.562;2022-07-22T13:05:55;5.93;;;5.43;;
60362;SDS011;46205;48.870;12.562;2022-07-22T13:08:21;7.75;;;5.82;;
60362;SDS011;46205;48.870;12.562;2022-07-22T13:10:50;8.35;;;6.32;;
60362;SDS011;46205;48.870;12.562;2022-07-22T13:13:16;10.57;;;9.27;;
60362;SDS011;46205;48.870;12.562;2022-07-22T13:15:43;6.70;;;6.10;;
60362;SDS011;46205;48.870;12.562;2022-07-22T13:18:09;8.05;;;6.15;;
60362;SDS011;46205;48.870;12.562;2022-07-22T13:20:36;8.35;;;6.32;;
60362;SDS011;46205;48.870;12.562;2022-07-22T13:23:02;9.50;;;8.60;;
60362;SDS011;46205;48.870;12.562;2022-07-22T13:25:28;7.55;;;6.95;;
60362;SDS011;46205;48.870;12.562;2022-07-22T13:27:55;7.05;;;6.40;;
60362;SDS011;46205;48.870;12.562;2022-07-22T13:30:21;7.43;;;6.93;;
60362;SDS011;46205;48.870;12.562;2022-07-22T13:32:48;6.95;;;6.45;;
60362;SDS011;46205;48.870;12.562;2022-07-22T13:35:18;7.25;;;6.65;;
60362;SDS011;46205;48.870;12.562;2022-07-22T13:37:44;6.88;;;6.28;;
60362;SDS011;46205;48.870;12.562;2022-07-22T13:40:11;8.73;;;6.70;;
60362;SDS011;46205;48.870;12.562;2022-07-22T13:42:38;6.80;;;6.22;;
60362;SDS011;46205;48.870;12.562;2022-07-22T13:45:04;7.60;;;6.90;;
60362;SDS011;46205;48.870;12.562;2022-07-22T13:47:34;6.53;;;5.93;;
60362;SDS011;46205;48.870;12.562;2022-07-22T13:50:00;7.32;;;6.25;;
60362;SDS011;46205;48.870;12.562;2022-07-22T13:52:27;6.47;;;6.03;;
60362;SDS011;46205;48.870;12.562;2022-07-22T13:54:53;6.72;;;6.22;;
60362;SDS011;46205;48.870;12.562;2022-07-22T13:57:19;7.28;;;6.57;;
60362;SDS011;46205;48.870;12.562;2022-07-22T13:59:45;6.70;;;6.20;;
60362;SDS011;46205;48.870;12.562;2022-07-22T14:02:12;7.55;;;6.45;;
60362;SDS011;46205;48.870;12.562;2022-07-22T14:04:38;8.18;;;6.82;;
60362;SDS011;46205;48.870;12.562;2022-07-22T14:07:04;6.88;;;6.32;;
60362;SDS011;46205;48.870;12.562;2022-07-22T14:09:37;7.20;;;6.63;;
60362;SDS011;46205;48.870;12.562;2022-07-22T14:12:03;9.05;;;7.90;;
60362;SDS011;46205;48.870;12.562;2022-07-22T14:14:29;8.15;;;7.35;;
60362;SDS011;46205;48.870;12.562;2022-07-22T14:16:56;28.42;;;26.02;;
60362;SDS011;46205;48.870;12.562;2022-07-22T14:19:23;8.38;;;7.57;;
60362;SDS011;46205;48.870;12.562;2022-07-22T14:21:51;7.28;;;6.50;;
60362;SDS011;46205;48.870;12.562;2022-07-22T14:24:17;6.93;;;6.43;;
60362;SDS011;46205;48.870;12.562;2022-07-22T14:26:43;6.90;;;6.30;;
60362;SDS011;46205;48.870;12.562;2022-07-22T14:29:09;5.97;;;5.57;;
60362;SDS011;46205;48.870;12.562;2022-07-22T14:31:36;7.95;;;5.90;;
60362;SDS011;46205;48.870;12.562;2022-07-22T14:34:02;6.65;;;5.93;;
60362;SDS011;46205;48.870;12.562;2022-07-22T14:36:29;5.65;;;5.10;;
60362;SDS011;46205;48.870;12.562;2022-07-22T14:38:55;8.35;;;4.80;;